Sullivan, New Hampshire
Current Conditions -  °F | °C
As of 4:35 PM on Friday 19 Dec 2014 (Local Time) from KEEN Reporting Station
Overcast Overcast  
Wind Chill: 21°   Ceiling: 2900
Heat Index: 30°   Visibility: 10mi
Dew Point: 19°   Wind: 10mph
Humidity: 64%   Direction: 340°NNW
Pressure: 30.03"   Gusts: NA
Location:  43.01°N, 72.22°W
Report Text: KEEN 192135Z AUTO 34009KT 310V030 10SM OVC029 M01/M07 A3003 RMK AO1
Loading
Personal Weather Stations






























Interactive Weather Map New forecast layout! Learn more

10-Day Weather Forecast

Advertisements
Track Severe Weather on mobile